sensor_id;sensor_type;location;lat;lon;timestamp;pressure;altitude;pressure_sealevel;temperature;humidity
13612;BME280;6877;51.436;6.774;2023-10-08T00:01:04;101731.16;;;17.36;88.47
13612;BME280;6877;51.436;6.774;2023-10-08T00:03:32;101734.75;;;17.35;88.61
13612;BME280;6877;51.436;6.774;2023-10-08T00:06:04;101738.31;;;17.34;88.68
13612;BME280;6877;51.436;6.774;2023-10-08T00:08:38;101746.28;;;17.33;88.55
13612;BME280;6877;51.436;6.774;2023-10-08T00:11:10;101759.56;;;17.31;88.89
13612;BME280;6877;51.436;6.774;2023-10-08T00:13:42;101764.00;;;17.31;88.46
13612;BME280;6877;51.436;6.774;2023-10-08T00:16:10;101744.59;;;17.30;88.63
13612;BME280;6877;51.436;6.774;2023-10-08T00:18:44;101740.22;;;17.29;88.54
13612;BME280;6877;51.436;6.774;2023-10-08T00:21:18;101752.59;;;17.29;88.35
13612;BME280;6877;51.436;6.774;2023-10-08T00:23:46;101761.47;;;17.26;88.49
13612;BME280;6877;51.436;6.774;2023-10-08T00:26:19;101753.63;;;17.23;88.63
13612;BME280;6877;51.436;6.774;2023-10-08T00:28:55;101747.50;;;17.21;88.79
13612;BME280;6877;51.436;6.774;2023-10-08T00:31:27;101768.78;;;17.18;88.75
13612;BME280;6877;51.436;6.774;2023-10-08T00:34:09;101763.50;;;17.18;88.99
13612;BME280;6877;51.436;6.774;2023-10-08T00:36:45;101758.31;;;17.15;88.94
13612;BME280;6877;51.436;6.774;2023-10-08T00:39:20;101761.84;;;17.14;89.30
13612;BME280;6877;51.436;6.774;2023-10-08T00:41:53;101779.59;;;17.10;89.12
13612;BME280;6877;51.436;6.774;2023-10-08T00:44:25;101778.75;;;17.08;89.56
13612;BME280;6877;51.436;6.774;2023-10-08T00:47:04;101777.88;;;17.08;89.42
13612;BME280;6877;51.436;6.774;2023-10-08T00:49:32;101781.44;;;17.07;89.73
13612;BME280;6877;51.436;6.774;2023-10-08T00:52:10;101767.47;;;17.03;89.61
13612;BME280;6877;51.436;6.774;2023-10-08T00:54:38;101776.34;;;17.01;89.85
13612;BME280;6877;51.436;6.774;2023-10-08T00:57:22;101773.84;;;16.96;90.05
13612;BME280;6877;51.436;6.774;2023-10-08T00:59:55;101768.66;;;16.93;90.27
13612;BME280;6877;51.436;6.774;2023-10-08T01:02:30;101769.59;;;16.90;90.46
13612;BME280;6877;51.436;6.774;2023-10-08T01:05:16;101780.19;;;16.89;90.55
13612;BME280;6877;51.436;6.774;2023-10-08T01:07:52;101777.63;;;16.87;90.42
13612;BME280;6877;51.436;6.774;2023-10-08T01:10:23;101776.78;;;16.85;90.66
13612;BME280;6877;51.436;6.774;2023-10-08T01:12:56;101775.13;;;16.81;90.78
13612;BME280;6877;51.436;6.774;2023-10-08T01:15:36;101781.38;;;16.79;90.94
13612;BME280;6877;51.436;6.774;2023-10-08T01:18:03;101786.72;;;16.77;91.26
13612;BME280;6877;51.436;6.774;2023-10-08T01:20:35;101801.78;;;16.72;91.56
13612;BME280;6877;51.436;6.774;2023-10-08T01:23:08;101784.38;;;16.65;91.87
13612;BME280;6877;51.436;6.774;2023-10-08T01:25:40;101787.22;;;16.57;92.07
13612;BME280;6877;51.436;6.774;2023-10-08T01:28:13;101784.72;;;16.53;92.51
13612;BME280;6877;51.436;6.774;2023-10-08T01:31:02;101789.28;;;16.46;92.49
13612;BME280;6877;51.436;6.774;2023-10-08T01:33:30;101792.03;;;16.41;93.04
13612;BME280;6877;51.436;6.774;2023-10-08T01:36:03;101785.09;;;16.37;93.44
13612;BME280;6877;51.436;6.774;2023-10-08T01:38:35;101778.97;;;16.37;93.79
13612;BME280;6877;51.436;6.774;2023-10-08T01:41:07;101786.09;;;16.33;93.94
13612;BME280;6877;51.436;6.774;2023-10-08T01:43:45;101783.53;;;16.30;94.08
13612;BME280;6877;51.436;6.774;2023-10-08T01:46:17;101779.19;;;16.28;94.10
13612;BME280;6877;51.436;6.774;2023-10-08T01:48:48;101775.69;;;16.27;94.48
13612;BME280;6877;51.436;6.774;2023-10-08T01:51:19;101773.00;;;16.29;94.37
13612;BME280;6877;51.436;6.774;2023-10-08T01:54:02;101780.91;;;16.30;94.27
13612;BME280;6877;51.436;6.774;2023-10-08T01:56:34;101782.56;;;16.33;94.02
13612;BME280;6877;51.436;6.774;2023-10-08T01:59:01;101775.53;;;16.33;94.00
13612;BME280;6877;51.436;6.774;2023-10-08T02:01:32;101781.59;;;16.37;93.81
13612;BME280;6877;51.436;6.774;2023-10-08T02:03:59;101778.97;;;16.37;93.66
13612;BME280;6877;51.436;6.774;2023-10-08T02:06:25;101771.06;;;16.35;93.74
13612;BME280;6877;51.436;6.774;2023-10-08T02:08:52;101770.34;;;16.30;94.11
13612;BME280;6877;51.436;6.774;2023-10-08T02:11:18;101779.22;;;16.26;94.03
13612;BME280;6877;51.436;6.774;2023-10-08T02:13:46;101773.22;;;16.21;93.99
13612;BME280;6877;51.436;6.774;2023-10-08T02:16:18;101771.53;;;16.17;94.03
13612;BME280;6877;51.436;6.774;2023-10-08T02:18:44;101775.16;;;16.13;94.24
13612;BME280;6877;51.436;6.774;2023-10-08T02:21:13;101769.09;;;16.09;94.22
13612;BME280;6877;51.436;6.774;2023-10-08T02:23:39;101757.81;;;16.03;94.44
13612;BME280;6877;51.436;6.774;2023-10-08T02:26:06;101765.84;;;15.98;94.65
13612;BME280;6877;51.436;6.774;2023-10-08T02:28:37;101759.78;;;15.94;94.92
13612;BME280;6877;51.436;6.774;2023-10-08T02:31:05;101760.72;;;15.92;94.97
13612;BME280;6877;51.436;6.774;2023-10-08T02:33:31;101744.94;;;15.89;95.17
13612;BME280;6877;51.436;6.774;2023-10-08T02:35:58;101742.38;;;15.87;95.09
13612;BME280;6877;51.436;6.774;2023-10-08T02:38:27;101757.34;;;15.87;95.25
13612;BME280;6877;51.436;6.774;2023-10-08T02:40:54;101775.91;;;15.84;95.40
13612;BME280;6877;51.436;6.774;2023-10-08T02:43:23;101765.34;;;15.82;95.19
13612;BME280;6877;51.436;6.774;2023-10-08T02:45:54;101772.47;;;15.80;95.16
13612;BME280;6877;51.436;6.774;2023-10-08T02:48:27;101756.66;;;15.79;94.80
13612;BME280;6877;51.436;6.774;2023-10-08T02:50:58;101755.84;;;15.77;94.80
13612;BME280;6877;51.436;6.774;2023-10-08T02:53:33;101759.34;;;15.77;94.42
13612;BME280;6877;51.436;6.774;2023-10-08T02:56:05;101773.41;;;15.76;94.37
13612;BME280;6877;51.436;6.774;2023-10-08T02:58:44;101779.59;;;15.75;94.10
13612;BME280;6877;51.436;6.774;2023-10-08T03:01:10;101812.19;;;15.74;93.67
13612;BME280;6877;51.436;6.774;2023-10-08T03:03:41;101803.41;;;15.73;93.52
13612;BME280;6877;51.436;6.774;2023-10-08T03:06:08;101791.97;;;15.73;93.37
13612;BME280;6877;51.436;6.774;2023-10-08T03:08:41;101806.91;;;15.74;93.27
13612;BME280;6877;51.436;6.774;2023-10-08T03:11:11;101800.72;;;15.75;92.67
13612;BME280;6877;51.436;6.774;2023-10-08T03:13:47;101786.69;;;15.73;92.92
13612;BME280;6877;51.436;6.774;2023-10-08T03:16:17;101818.41;;;15.71;92.96
13612;BME280;6877;51.436;6.774;2023-10-08T03:18:47;101817.59;;;15.66;92.97
13612;BME280;6877;51.436;6.774;2023-10-08T03:21:21;101832.69;;;15.61;93.08
13612;BME280;6877;51.436;6.774;2023-10-08T03:24:04;101830.94;;;15.60;93.24
13612;BME280;6877;51.436;6.774;2023-10-08T03:26:50;101835.34;;;15.60;93.16
13612;BME280;6877;51.436;6.774;2023-10-08T03:29:21;101829.19;;;15.59;93.25
13612;BME280;6877;51.436;6.774;2023-10-08T03:31:53;101839.75;;;15.61;93.23
13612;BME280;6877;51.436;6.774;2023-10-08T03:34:21;101826.47;;;15.64;93.18
13612;BME280;6877;51.436;6.774;2023-10-08T03:36:58;101801.81;;;15.65;92.71
13612;BME280;6877;51.436;6.774;2023-10-08T03:39:31;101795.69;;;15.63;92.84
13612;BME280;6877;51.436;6.774;2023-10-08T03:42:21;101802.03;;;15.56;92.94
13612;BME280;6877;51.436;6.774;2023-10-08T03:44:54;101778.34;;;15.52;92.85
13612;BME280;6877;51.436;6.774;2023-10-08T03:47:27;101796.88;;;15.51;92.93
13612;BME280;6877;51.436;6.774;2023-10-08T03:49:53;101788.97;;;15.49;93.13
13612;BME280;6877;51.436;6.774;2023-10-08T03:52:20;101780.19;;;15.47;93.17
13612;BME280;6877;51.436;6.774;2023-10-08T03:54:49;101791.66;;;15.46;93.15
13612;BME280;6877;51.436;6.774;2023-10-08T03:57:30;101778.53;;;15.45;93.15
13612;BME280;6877;51.436;6.774;2023-10-08T04:00:11;101802.28;;;15.45;93.56
13612;BME280;6877;51.436;6.774;2023-10-08T04:03:03;101813.63;;;15.48;93.49
13612;BME280;6877;51.436;6.774;2023-10-08T04:05:39;101804.84;;;15.48;93.15
13612;BME280;6877;51.436;6.774;2023-10-08T04:08:24;101811.00;;;15.47;93.13
13612;BME280;6877;51.436;6.774;2023-10-08T04:11:13;101811.84;;;15.47;93.19
13612;BME280;6877;51.436;6.774;2023-10-08T04:13:56;101817.19;;;15.46;93.20
13612;BME280;6877;51.436;6.774;2023-10-08T04:16:25;101823.31;;;15.46;93.01
13612;BME280;6877;51.436;6.774;2023-10-08T04:18:57;101822.41;;;15.47;93.13
13612;BME280;6877;51.436;6.774;2023-10-08T04:21:27;101840.00;;;15.48;93.10
13612;BME280;6877;51.436;6.774;2023-10-08T04:24:02;101838.19;;;15.50;93.10
13612;BME280;6877;51.436;6.774;2023-10-08T04:26:37;101836.44;;;15.49;92.98
13612;BME280;6877;51.436;6.774;2023-10-08T04:29:11;101827.69;;;15.47;93.17
13612;BME280;6877;51.436;6.774;2023-10-08T04:31:47;101822.53;;;15.41;93.38
13612;BME280;6877;51.436;6.774;2023-10-08T04:34:25;101814.75;;;15.37;93.52
13612;BME280;6877;51.436;6.774;2023-10-08T04:36:54;101816.59;;;15.32;93.78
13612;BME280;6877;51.436;6.774;2023-10-08T04:39:21;101820.16;;;15.30;94.01
13612;BME280;6877;51.436;6.774;2023-10-08T04:42:07;101814.06;;;15.27;94.36
13612;BME280;6877;51.436;6.774;2023-10-08T04:44:37;101821.13;;;15.25;94.43
13612;BME280;6877;51.436;6.774;2023-10-08T04:47:07;101837.88;;;15.24;94.63
13612;BME280;6877;51.436;6.774;2023-10-08T04:49:48;101821.19;;;15.22;94.64
13612;BME280;6877;51.436;6.774;2023-10-08T04:52:19;101822.09;;;15.21;94.84
13612;BME280;6877;51.436;6.774;2023-10-08T04:54:46;101841.44;;;15.21;94.86
13612;BME280;6877;51.436;6.774;2023-10-08T04:57:22;101841.41;;;15.23;95.00
13612;BME280;6877;51.436;6.774;2023-10-08T04:59:54;101853.63;;;15.27;95.28
13612;BME280;6877;51.436;6.774;2023-10-08T05:02:28;101855.34;;;15.28;94.96
13612;BME280;6877;51.436;6.774;2023-10-08T05:05:20;101871.19;;;15.28;94.93
13612;BME280;6877;51.436;6.774;2023-10-08T05:07:51;101872.97;;;15.27;95.10
13612;BME280;6877;51.436;6.774;2023-10-08T05:10:22;101885.22;;;15.30;94.93
13612;BME280;6877;51.436;6.774;2023-10-08T05:12:57;101879.97;;;15.28;95.06
13612;BME280;6877;51.436;6.774;2023-10-08T05:15:29;101883.50;;;15.27;95.15
13612;BME280;6877;51.436;6.774;2023-10-08T05:18:12;101894.00;;;15.30;95.02
13612;BME280;6877;51.436;6.774;2023-10-08T05:20:40;101895.75;;;15.30;95.10
13612;BME280;6877;51.436;6.774;2023-10-08T05:23:30;101898.41;;;15.28;95.03
13612;BME280;6877;51.436;6.774;2023-10-08T05:25:57;101894.09;;;15.26;95.02
13612;BME280;6877;51.436;6.774;2023-10-08T05:28:39;101896.78;;;15.23;95.13
13612;BME280;6877;51.436;6.774;2023-10-08T05:31:24;101889.81;;;15.19;95.36
13612;BME280;6877;51.436;6.774;2023-10-08T05:34:15;101879.34;;;15.16;95.52
13612;BME280;6877;51.436;6.774;2023-10-08T05:36:49;101864.53;;;15.09;95.51
13612;BME280;6877;51.436;6.774;2023-10-08T05:39:35;101859.38;;;15.02;95.81
13612;BME280;6877;51.436;6.774;2023-10-08T05:42:05;101858.59;;;14.97;96.19
13612;BME280;6877;51.436;6.774;2023-10-08T05:44:51;101866.59;;;14.93;96.41
13612;BME280;6877;51.436;6.774;2023-10-08T05:47:41;101854.34;;;14.90;96.56
13612;BME280;6877;51.436;6.774;2023-10-08T05:50:32;101861.50;;;14.85;96.85
13612;BME280;6877;51.436;6.774;2023-10-08T05:53:05;101858.88;;;14.83;97.16
13612;BME280;6877;51.436;6.774;2023-10-08T05:55:45;101848.31;;;14.85;97.79
13612;BME280;6877;51.436;6.774;2023-10-08T05:58:27;101853.59;;;14.85;97.72
13612;BME280;6877;51.436;6.774;2023-10-08T06:01:16;101860.59;;;14.84;97.85
13612;BME280;6877;51.436;6.774;2023-10-08T06:04:08;101870.31;;;14.82;98.06
13612;BME280;6877;51.436;6.774;2023-10-08T06:06:54;101878.22;;;14.82;98.22
13612;BME280;6877;51.436;6.774;2023-10-08T06:09:43;101871.19;;;14.83;98.08
13612;BME280;6877;51.436;6.774;2023-10-08T06:12:27;101865.03;;;14.82;98.21
13612;BME280;6877;51.436;6.774;2023-10-08T06:14:56;101865.91;;;14.83;98.41
13612;BME280;6877;51.436;6.774;2023-10-08T06:17:35;101887.91;;;14.82;98.32
13612;BME280;6877;51.436;6.774;2023-10-08T06:20:22;101889.56;;;14.86;98.40
13612;BME280;6877;51.436;6.774;2023-10-08T06:22:52;101888.59;;;14.90;98.24
13612;BME280;6877;51.436;6.774;2023-10-08T06:25:26;101907.91;;;14.92;98.16
13612;BME280;6877;51.436;6.774;2023-10-08T06:27:54;101914.00;;;14.96;98.32
13612;BME280;6877;51.436;6.774;2023-10-08T06:30:22;101899.03;;;14.98;98.22
13612;BME280;6877;51.436;6.774;2023-10-08T06:32:51;101910.41;;;15.00;98.49
13612;BME280;6877;51.436;6.774;2023-10-08T06:35:20;101905.97;;;15.00;98.34
13612;BME280;6877;51.436;6.774;2023-10-08T06:37:56;101900.72;;;15.00;98.24
13612;BME280;6877;51.436;6.774;2023-10-08T06:40:26;101905.13;;;15.00;98.30
13612;BME280;6877;51.436;6.774;2023-10-08T06:43:05;101902.47;;;15.00;98.09
13612;BME280;6877;51.436;6.774;2023-10-08T06:45:54;101886.59;;;15.03;98.12
13612;BME280;6877;51.436;6.774;2023-10-08T06:48:29;101910.31;;;15.04;98.29
13612;BME280;6877;51.436;6.774;2023-10-08T06:51:01;101921.69;;;15.06;98.07
13612;BME280;6877;51.436;6.774;2023-10-08T06:53:40;101934.00;;;15.07;97.98
13612;BME280;6877;51.436;6.774;2023-10-08T06:56:16;101947.06;;;15.14;97.96
13612;BME280;6877;51.436;6.774;2023-10-08T06:58:43;101960.19;;;15.17;97.95
13612;BME280;6877;51.436;6.774;2023-10-08T07:01:20;101942.56;;;15.19;97.84
13612;BME280;6877;51.436;6.774;2023-10-08T07:04:06;101950.47;;;15.20;97.68
13612;BME280;6877;51.436;6.774;2023-10-08T07:06:41;101949.53;;;15.23;97.55
13612;BME280;6877;51.436;6.774;2023-10-08T07:09:14;101943.38;;;15.22;97.81
13612;BME280;6877;51.436;6.774;2023-10-08T07:12:00;101954.75;;;15.26;97.67
13612;BME280;6877;51.436;6.774;2023-10-08T07:14:36;101962.59;;;15.29;97.98
13612;BME280;6877;51.436;6.774;2023-10-08T07:17:09;101983.66;;;15.32;97.99
13612;BME280;6877;51.436;6.774;2023-10-08T07:19:43;101981.81;;;15.36;98.23
13612;BME280;6877;51.436;6.774;2023-10-08T07:22:13;101985.22;;;15.41;98.10
13612;BME280;6877;51.436;6.774;2023-10-08T07:24:48;101991.31;;;15.44;98.21
13612;BME280;6877;51.436;6.774;2023-10-08T07:27:21;101981.59;;;15.48;98.43
13612;BME280;6877;51.436;6.774;2023-10-08T07:29:55;101978.75;;;15.57;98.44
13612;BME280;6877;51.436;6.774;2023-10-08T07:32:27;101974.97;;;15.72;98.15
13612;BME280;6877;51.436;6.774;2023-10-08T07:34:53;101975.59;;;15.85;97.52
13612;BME280;6877;51.436;6.774;2023-10-08T07:37:31;101969.25;;;15.93;97.06
13612;BME280;6877;51.436;6.774;2023-10-08T07:39:58;101970.03;;;15.98;96.81
13612;BME280;6877;51.436;6.774;2023-10-08T07:42:25;101979.50;;;16.07;96.74
13612;BME280;6877;51.436;6.774;2023-10-08T07:44:52;101982.00;;;16.15;96.46
13612;BME280;6877;51.436;6.774;2023-10-08T07:47:26;101985.38;;;16.20;96.29
13612;BME280;6877;51.436;6.774;2023-10-08T07:49:59;101992.34;;;16.24;96.13
13612;BME280;6877;51.436;6.774;2023-10-08T07:52:25;101989.84;;;16.18;96.30
13612;BME280;6877;51.436;6.774;2023-10-08T07:54:52;101982.94;;;16.11;96.57
13612;BME280;6877;51.436;6.774;2023-10-08T07:57:19;101987.28;;;16.15;96.76
13612;BME280;6877;51.436;6.774;2023-10-08T07:59:54;101983.47;;;16.27;97.22
13612;BME280;6877;51.436;6.774;2023-10-08T08:02:26;101985.63;;;16.48;98.09
13612;BME280;6877;51.436;6.774;2023-10-08T08:04:53;101986.06;;;16.67;98.58
13612;BME280;6877;51.436;6.774;2023-10-08T08:07:20;101984.97;;;16.77;98.65
13612;BME280;6877;51.436;6.774;2023-10-08T08:09:49;101994.50;;;16.84;98.80
13612;BME280;6877;51.436;6.774;2023-10-08T08:12:25;102012.84;;;16.90;98.64
13612;BME280;6877;51.436;6.774;2023-10-08T08:14:52;102009.50;;;16.82;98.15
13612;BME280;6877;51.436;6.774;2023-10-08T08:17:18;102007.94;;;16.75;98.46
13612;BME280;6877;51.436;6.774;2023-10-08T08:19:49;102003.75;;;16.63;98.51
13612;BME280;6877;51.436;6.774;2023-10-08T08:22:21;102009.13;;;16.60;98.67
13612;BME280;6877;51.436;6.774;2023-10-08T08:24:49;102025.03;;;16.57;98.92
13612;BME280;6877;51.436;6.774;2023-10-08T08:27:24;102029.47;;;16.57;99.00
13612;BME280;6877;51.436;6.774;2023-10-08T08:29:51;102033.16;;;16.50;99.22
13612;BME280;6877;51.436;6.774;2023-10-08T08:32:26;102022.88;;;16.37;99.49
13612;BME280;6877;51.436;6.774;2023-10-08T08:34:54;102025.53;;;16.36;99.95
13612;BME280;6877;51.436;6.774;2023-10-08T08:37:21;102015.78;;;16.39;100.00
13612;BME280;6877;51.436;6.774;2023-10-08T08:39:57;102017.34;;;16.48;99.57
13612;BME280;6877;51.436;6.774;2023-10-08T08:42:24;102010.19;;;16.53;99.07
13612;BME280;6877;51.436;6.774;2023-10-08T08:44:54;102013.91;;;16.44;99.45
13612;BME280;6877;51.436;6.774;2023-10-08T08:47:22;102023.84;;;16.71;99.21
13612;BME280;6877;51.436;6.774;2023-10-08T08:49:58;102018.34;;;17.17;97.26
13612;BME280;6877;51.436;6.774;2023-10-08T08:52:26;102023.97;;;17.37;95.24
13612;BME280;6877;51.436;6.774;2023-10-08T08:54:58;102018.69;;;17.37;94.65
13612;BME280;6877;51.436;6.774;2023-10-08T08:57:29;102025.72;;;17.38;94.59
13612;BME280;6877;51.436;6.774;2023-10-08T08:59:58;102032.72;;;17.40;94.13
13612;BME280;6877;51.436;6.774;2023-10-08T09:02:29;102034.72;;;17.31;94.23
13612;BME280;6877;51.436;6.774;2023-10-08T09:04:58;102036.06;;;17.13;94.90
13612;BME280;6877;51.436;6.774;2023-10-08T09:07:32;102041.50;;;17.07;95.58
13612;BME280;6877;51.436;6.774;2023-10-08T09:09:59;102046.91;;;17.03;95.47
13612;BME280;6877;51.436;6.774;2023-10-08T09:12:32;102060.38;;;16.94;96.43
13612;BME280;6877;51.436;6.774;2023-10-08T09:15:01;102068.06;;;16.64;98.12
13612;BME280;6877;51.436;6.774;2023-10-08T09:17:30;102066.94;;;16.35;99.90
13612;BME280;6877;51.436;6.774;2023-10-08T09:20:05;102064.69;;;16.17;100.00
13612;BME280;6877;51.436;6.774;2023-10-08T09:22:38;102067.50;;;16.08;100.00
13612;BME280;6877;51.436;6.774;2023-10-08T09:25:09;102071.91;;;16.09;100.00
13612;BME280;6877;51.436;6.774;2023-10-08T09:27:36;102080.66;;;16.11;100.00
13612;BME280;6877;51.436;6.774;2023-10-08T09:30:09;102071.00;;;16.10;100.00
13612;BME280;6877;51.436;6.774;2023-10-08T09:32:42;102087.88;;;16.03;100.00
13612;BME280;6877;51.436;6.774;2023-10-08T09:35:15;102092.44;;;15.94;100.00
13612;BME280;6877;51.436;6.774;2023-10-08T09:37:46;102097.00;;;15.85;100.00
13612;BME280;6877;51.436;6.774;2023-10-08T09:40:13;102093.56;;;15.81;100.00
13612;BME280;6877;51.436;6.774;2023-10-08T09:42:47;102086.56;;;15.80;100.00
13612;BME280;6877;51.436;6.774;2023-10-08T09:45:14;102094.66;;;15.71;100.00
13612;BME280;6877;51.436;6.774;2023-10-08T09:47:45;102094.78;;;15.62;100.00
13612;BME280;6877;51.436;6.774;2023-10-08T09:50:15;102086.06;;;15.57;100.00
13612;BME280;6877;51.436;6.774;2023-10-08T09:55:23;102080.88;;;15.52;100.00
13612;BME280;6877;51.436;6.774;2023-10-08T09:57:54;102078.34;;;15.46;100.00
13612;BME280;6877;51.436;6.774;2023-10-08T10:00:23;102079.16;;;15.49;100.00
13612;BME280;6877;51.436;6.774;2023-10-08T10:03:02;102078.09;;;15.60;100.00
13612;BME280;6877;51.436;6.774;2023-10-08T10:05:31;102078.81;;;15.71;100.00
13612;BME280;6877;51.436;6.774;2023-10-08T10:08:03;102079.28;;;15.93;100.00
13612;BME280;6877;51.436;6.774;2023-10-08T10:10:32;102084.00;;;16.20;100.00
13612;BME280;6877;51.436;6.774;2023-10-08T10:13:05;102085.56;;;16.29;100.00
13612;BME280;6877;51.436;6.774;2023-10-08T10:15:42;102076.97;;;16.19;100.00
13612;BME280;6877;51.436;6.774;2023-10-08T10:18:14;102087.50;;;16.21;100.00
13612;BME280;6877;51.436;6.774;2023-10-08T10:20:51;102089.97;;;16.29;100.00
13612;BME280;6877;51.436;6.774;2023-10-08T10:23:38;102075.84;;;16.31;100.00
13612;BME280;6877;51.436;6.774;2023-10-08T10:34:15;102089.84;;;15.93;100.00
13612;BME280;6877;51.436;6.774;2023-10-08T10:36:47;102093.34;;;15.93;100.00
13612;BME280;6877;51.436;6.774;2023-10-08T10:39:26;102096.84;;;15.94;100.00
13612;BME280;6877;51.436;6.774;2023-10-08T10:41:59;102084.91;;;15.74;100.00
13612;BME280;6877;51.436;6.774;2023-10-08T10:44:47;102090.13;;;15.78;100.00
13612;BME280;6877;51.436;6.774;2023-10-08T10:47:23;102102.41;;;15.79;100.00
13612;BME280;6877;51.436;6.774;2023-10-08T10:49:58;102098.06;;;15.76;100.00
13612;BME280;6877;51.436;6.774;2023-10-08T10:52:52;102107.06;;;15.63;100.00
13612;BME280;6877;51.436;6.774;2023-10-08T10:55:19;102111.69;;;15.50;100.00
13612;BME280;6877;51.436;6.774;2023-10-08T10:57:56;102115.28;;;15.46;100.00
13612;BME280;6877;51.436;6.774;2023-10-08T11:00:31;102110.88;;;15.46;100.00
13612;BME280;6877;51.436;6.774;2023-10-08T11:03:03;102110.66;;;15.57;100.00
13612;BME280;6877;51.436;6.774;2023-10-08T11:05:34;102109.69;;;15.63;100.00
13612;BME280;6877;51.436;6.774;2023-10-08T11:08:05;102115.06;;;15.58;100.00
13612;BME280;6877;51.436;6.774;2023-10-08T11:10:38;102114.47;;;15.42;100.00
13612;BME280;6877;51.436;6.774;2023-10-08T11:13:06;102117.25;;;15.33;100.00
13612;BME280;6877;51.436;6.774;2023-10-08T11:15:50;102099.53;;;15.41;100.00
13612;BME280;6877;51.436;6.774;2023-10-08T11:18:24;102100.38;;;15.43;100.00
13612;BME280;6877;51.436;6.774;2023-10-08T11:21:06;102103.16;;;15.36;100.00
13612;BME280;6877;51.436;6.774;2023-10-08T11:23:44;102105.84;;;15.31;100.00
13612;BME280;6877;51.436;6.774;2023-10-08T11:26:20;102098.75;;;15.36;100.00
13612;BME280;6877;51.436;6.774;2023-10-08T11:28:52;102091.34;;;15.57;100.00
13612;BME280;6877;51.436;6.774;2023-10-08T11:31:19;102089.16;;;15.82;100.00
13612;BME280;6877;51.436;6.774;2023-10-08T11:33:50;102094.00;;;16.05;100.00
13612;BME280;6877;51.436;6.774;2023-10-08T11:36:28;102098.50;;;16.41;98.14
13612;BME280;6877;51.436;6.774;2023-10-08T11:39:12;102098.75;;;16.71;95.14
13612;BME280;6877;51.436;6.774;2023-10-08T11:42:01;102099.41;;;16.82;93.89
13612;BME280;6877;51.436;6.774;2023-10-08T11:44:30;102093.59;;;17.04;93.13
13612;BME280;6877;51.436;6.774;2023-10-08T11:46:57;102080.09;;;17.16;91.33
13612;BME280;6877;51.436;6.774;2023-10-08T11:49:31;102085.88;;;16.96;90.73
13612;BME280;6877;51.436;6.774;2023-10-08T11:52:02;102080.25;;;16.71;91.51
13612;BME280;6877;51.436;6.774;2023-10-08T11:54:29;102069.75;;;16.68;92.02
13612;BME280;6877;51.436;6.774;2023-10-08T11:57:00;102072.41;;;16.68;91.91
13612;BME280;6877;51.436;6.774;2023-10-08T11:59:29;102069.88;;;16.62;91.83
13612;BME280;6877;51.436;6.774;2023-10-08T12:02:00;102067.47;;;16.51;92.42
13612;BME280;6877;51.436;6.774;2023-10-08T12:04:27;102068.13;;;16.62;92.39
13612;BME280;6877;51.436;6.774;2023-10-08T12:06:55;102071.09;;;16.86;91.20
13612;BME280;6877;51.436;6.774;2023-10-08T12:09:22;102066.94;;;17.13;90.18
13612;BME280;6877;51.436;6.774;2023-10-08T12:11:54;102072.72;;;17.27;88.53
13612;BME280;6877;51.436;6.774;2023-10-08T12:14:20;102067.56;;;17.23;88.31
13612;BME280;6877;51.436;6.774;2023-10-08T12:16:47;102073.94;;;17.16;88.32
13612;BME280;6877;51.436;6.774;2023-10-08T12:19:13;102074.78;;;17.16;88.47
13612;BME280;6877;51.436;6.774;2023-10-08T12:21:44;102065.38;;;17.04;88.54
13612;BME280;6877;51.436;6.774;2023-10-08T12:24:14;102061.53;;;16.82;89.51
13612;BME280;6877;51.436;6.774;2023-10-08T12:26:40;102055.38;;;16.81;90.30
13612;BME280;6877;51.436;6.774;2023-10-08T12:29:13;102062.09;;;16.95;90.16
13612;BME280;6877;51.436;6.774;2023-10-08T12:31:46;102058.22;;;17.08;89.77
13612;BME280;6877;51.436;6.774;2023-10-08T12:34:18;102053.72;;;17.13;89.42
13612;BME280;6877;51.436;6.774;2023-10-08T12:36:50;102039.72;;;17.08;89.34
13612;BME280;6877;51.436;6.774;2023-10-08T12:39:17;102045.78;;;17.13;89.31
13612;BME280;6877;51.436;6.774;2023-10-08T12:41:48;102048.38;;;17.14;89.29
13612;BME280;6877;51.436;6.774;2023-10-08T12:44:21;102048.50;;;17.10;89.15
13612;BME280;6877;51.436;6.774;2023-10-08T12:46:54;102046.34;;;16.90;89.64
13612;BME280;6877;51.436;6.774;2023-10-08T12:49:22;102035.22;;;16.76;90.05
13612;BME280;6877;51.436;6.774;2023-10-08T12:51:48;102027.38;;;16.71;90.59
13612;BME280;6877;51.436;6.774;2023-10-08T12:54:15;102025.84;;;16.61;91.42
13612;BME280;6877;51.436;6.774;2023-10-08T12:56:48;102040.97;;;16.54;92.06
13612;BME280;6877;51.436;6.774;2023-10-08T12:59:15;102044.41;;;16.59;92.02
13612;BME280;6877;51.436;6.774;2023-10-08T13:01:52;102051.34;;;16.63;92.15
13612;BME280;6877;51.436;6.774;2023-10-08T13:04:25;102024.75;;;16.69;92.07
13612;BME280;6877;51.436;6.774;2023-10-08T13:06:59;102018.53;;;16.72;91.81
13612;BME280;6877;51.436;6.774;2023-10-08T13:09:30;102019.34;;;16.77;91.83
13612;BME280;6877;51.436;6.774;2023-10-08T13:12:07;102004.56;;;16.67;92.03
13612;BME280;6877;51.436;6.774;2023-10-08T13:14:41;102011.63;;;16.66;92.43
13612;BME280;6877;51.436;6.774;2023-10-08T13:17:15;102019.69;;;16.62;92.47
13612;BME280;6877;51.436;6.774;2023-10-08T13:19:47;102012.75;;;16.56;92.74
13612;BME280;6877;51.436;6.774;2023-10-08T13:22:18;101986.50;;;16.49;93.31
13612;BME280;6877;51.436;6.774;2023-10-08T13:24:46;101971.69;;;16.41;94.30
13612;BME280;6877;51.436;6.774;2023-10-08T13:27:19;101998.84;;;16.48;95.37
13612;BME280;6877;51.436;6.774;2023-10-08T13:29:51;101988.91;;;16.58;95.61
13612;BME280;6877;51.436;6.774;2023-10-08T13:32:18;101973.06;;;16.58;94.48
13612;BME280;6877;51.436;6.774;2023-10-08T13:34:44;101973.75;;;16.66;94.27
13612;BME280;6877;51.436;6.774;2023-10-08T13:37:17;101965.41;;;16.84;93.65
13612;BME280;6877;51.436;6.774;2023-10-08T13:39:43;101963.09;;;17.05;92.98